Time;durP1;ratioP1;P1;durP2;ratioP2;P2;SDS_P1;SDS_P2;PMS_P1;PMS_P2;Temp;Humidity;BMP_temperature;BMP_pressure;BME280_temperature;BME280_humidity;BME280_pressure;Samples;Min_cycle;Max_cycle;Signal;HPM_P1;HPM_P2
2023/01/07 00:01:55;;;;;;;42.00;18.63;;;;;;;;;;5035176;28;20461;-79
2023/01/07 00:04:22;;;;;;;38.63;19.83;;;;;;;;;;5040025;28;20475;-79
2023/01/07 00:06:49;;;;;;;39.23;20.07;;;;;;;;;;5035824;28;20942;-79
2023/01/07 00:09:16;;;;;;;34.73;19.87;;;;;;;;;;5036660;28;20854;-79
2023/01/07 00:11:42;;;;;;;36.47;19.63;;;;;;;;;;5035205;28;20468;-79
2023/01/07 00:14:10;;;;;;;38.10;21.40;;;;;;;;;;5033115;28;20846;-79
2023/01/07 00:16:37;;;;;;;37.87;21.30;;;;;;;;;;5035557;28;20552;-79
2023/01/07 00:19:06;;;;;;;35.77;19.13;;;;;;;;;;5034392;28;20835;-79
2023/01/07 00:21:32;;;;;;;40.50;20.67;;;;;;;;;;5036940;28;20456;-79
2023/01/07 00:24:00;;;;;;;43.60;21.90;;;;;;;;;;5036488;28;20470;-79
2023/01/07 00:26:28;;;;;;;41.70;22.00;;;;;;;;;;5040599;28;20463;-79
2023/01/07 00:28:54;;;;;;;39.20;21.57;;;;;;;;;;5042124;28;20473;-79
2023/01/07 00:31:21;;;;;;;43.33;21.27;;;;;;;;;;5038988;28;20466;-79
2023/01/07 00:33:52;;;;;;;46.53;24.23;;;;;;;;;;5037727;28;20480;-79
2023/01/07 00:36:21;;;;;;;42.10;22.13;;;;;;;;;;5032396;28;20481;-79
2023/01/07 00:38:53;;;;;;;41.00;22.27;;;;;;;;;;5041077;28;20476;-79
2023/01/07 00:41:20;;;;;;;41.33;22.90;;;;;;;;;;5038272;28;20464;-79
2023/01/07 00:43:46;;;;;;;43.33;22.27;;;;;;;;;;5033480;28;20473;-79
2023/01/07 00:46:13;;;;;;;47.30;23.70;;;;;;;;;;5037680;28;20464;-79
2023/01/07 00:48:40;;;;;;;49.53;24.53;;;;;;;;;;5036270;28;20483;-79
2023/01/07 00:51:06;;;;;;;48.60;22.57;;;;;;;;;;5038678;28;20452;-79
2023/01/07 00:53:34;;;;;;;44.43;25.93;;;;;;;;;;5029962;28;20544;-79
2023/01/07 00:56:01;;;;;;;52.43;23.87;;;;;;;;;;5035399;28;20993;-79
2023/01/07 00:58:28;;;;;;;40.30;21.40;;;;;;;;;;5041515;28;20475;-80
2023/01/07 01:00:54;;;;;;;50.87;24.70;;;;;;;;;;5036256;28;20448;-79
2023/01/07 01:03:21;;;;;;;48.57;27.90;;;;;;;;;;5033519;28;20472;-80
2023/01/07 01:05:47;;;;;;;49.73;24.90;;;;;;;;;;5036726;28;20457;-79
2023/01/07 01:08:14;;;;;;;47.10;24.83;;;;;;;;;;5033295;28;20464;-79
2023/01/07 01:10:42;;;;;;;43.67;24.00;;;;;;;;;;5034637;28;20461;-79
2023/01/07 01:13:10;;;;;;;43.10;23.27;;;;;;;;;;5031713;28;20478;-79
2023/01/07 01:15:40;;;;;;;45.10;23.30;;;;;;;;;;5038298;28;20445;-79
2023/01/07 01:18:06;;;;;;;48.60;26.00;;;;;;;;;;5032077;28;21076;-79
2023/01/07 01:20:33;;;;;;;45.27;23.07;;;;;;;;;;5036409;28;20704;-79
2023/01/07 01:23:00;;;;;;;40.43;25.10;;;;;;;;;;5040785;28;20469;-79
2023/01/07 01:25:26;;;;;;;41.30;24.10;;;;;;;;;;5037742;28;20471;-79
2023/01/07 01:27:54;;;;;;;44.80;23.33;;;;;;;;;;5034871;28;20846;-79
2023/01/07 01:30:20;;;;;;;42.33;23.60;;;;;;;;;;5040508;28;20475;-79
2023/01/07 01:32:48;;;;;;;45.23;25.10;;;;;;;;;;5035307;28;20476;-79
2023/01/07 01:35:15;;;;;;;45.40;24.93;;;;;;;;;;5037044;28;20457;-79
2023/01/07 01:37:41;;;;;;;42.87;23.47;;;;;;;;;;5037557;28;20481;-79
2023/01/07 01:40:08;;;;;;;46.00;25.97;;;;;;;;;;5040630;28;20465;-79
2023/01/07 01:42:34;;;;;;;47.50;24.70;;;;;;;;;;5038242;28;20452;-79
2023/01/07 01:45:03;;;;;;;45.33;24.80;;;;;;;;;;5035945;28;20461;-79
2023/01/07 01:47:35;;;;;;;44.47;24.97;;;;;;;;;;5030753;28;20477;-80
2023/01/07 01:50:04;;;;;;;51.60;26.03;;;;;;;;;;5039394;28;20444;-79
2023/01/07 01:52:34;;;;;;;45.53;25.07;;;;;;;;;;5032412;28;20462;-80
2023/01/07 01:55:02;;;;;;;46.30;25.17;;;;;;;;;;5034711;28;20453;-79
2023/01/07 01:57:31;;;;;;;43.37;24.00;;;;;;;;;;5036968;28;20492;-79
2023/01/07 01:59:58;;;;;;;44.50;24.87;;;;;;;;;;5034268;28;20926;-79
2023/01/07 02:02:28;;;;;;;52.60;27.37;;;;;;;;;;5036122;28;20459;-80
2023/01/07 02:04:55;;;;;;;53.30;26.87;;;;;;;;;;5035795;28;20458;-79
2023/01/07 02:07:21;;;;;;;46.40;26.97;;;;;;;;;;5031653;28;20450;-80
2023/01/07 02:09:49;;;;;;;47.40;27.33;;;;;;;;;;5031189;28;20444;-79
2023/01/07 02:12:21;;;;;;;43.83;24.13;;;;;;;;;;5035197;28;20460;-80
2023/01/07 02:14:59;;;;;;;46.70;26.60;;;;;;;;;;5028765;28;20464;-79
2023/01/07 02:17:30;;;;;;;42.77;25.93;;;;;;;;;;5025191;28;20476;-79
2023/01/07 02:20:07;;;;;;;49.37;26.90;;;;;;;;;;5038787;28;20483;-79
2023/01/07 02:22:43;;;;;;;50.77;29.23;;;;;;;;;;5038364;28;20457;-79
2023/01/07 02:25:42;;;;;;;46.50;26.43;;;;;;;;;;5033977;28;20464;-79
2023/01/07 02:28:22;;;;;;;50.63;27.53;;;;;;;;;;5035220;28;20552;-79
2023/01/07 02:30:59;;;;;;;50.40;27.27;;;;;;;;;;5034743;28;20488;-79
2023/01/07 02:33:37;;;;;;;49.97;27.40;;;;;;;;;;5039671;28;21009;-79
2023/01/07 02:36:12;;;;;;;56.83;27.20;;;;;;;;;;5035438;28;20468;-79
2023/01/07 02:38:43;;;;;;;50.17;29.03;;;;;;;;;;5040016;28;20874;-79
2023/01/07 02:41:15;;;;;;;49.90;30.30;;;;;;;;;;5042542;28;20464;-79
2023/01/07 02:43:48;;;;;;;48.10;28.80;;;;;;;;;;5036264;28;20473;-79
2023/01/07 02:46:19;;;;;;;45.83;27.67;;;;;;;;;;5039891;28;20453;-79
2023/01/07 02:48:47;;;;;;;52.30;30.30;;;;;;;;;;5035821;28;20488;-80
2023/01/07 02:51:13;;;;;;;49.70;28.10;;;;;;;;;;5042770;28;20950;-80
2023/01/07 02:53:43;;;;;;;50.00;26.27;;;;;;;;;;5037345;28;20829;-79
2023/01/07 02:56:15;;;;;;;50.40;30.23;;;;;;;;;;5037291;28;20457;-79
2023/01/07 02:58:48;;;;;;;55.47;30.53;;;;;;;;;;5033954;28;20485;-79
2023/01/07 03:01:36;;;;;;;53.40;31.20;;;;;;;;;;5038847;28;20450;-79
2023/01/07 03:04:14;;;;;;;49.33;30.70;;;;;;;;;;5016181;28;20484;-79
2023/01/07 03:06:51;;;;;;;52.93;29.10;;;;;;;;;;5036490;28;20445;-79
2023/01/07 03:09:21;;;;;;;52.80;30.33;;;;;;;;;;5042159;28;20990;-79
2023/01/07 03:11:53;;;;;;;53.20;30.10;;;;;;;;;;5036809;28;20469;-80
2023/01/07 03:14:20;;;;;;;45.87;28.33;;;;;;;;;;5039717;28;20477;-79
2023/01/07 03:16:50;;;;;;;57.63;31.47;;;;;;;;;;5043538;28;20485;-79
2023/01/07 03:19:18;;;;;;;51.00;31.63;;;;;;;;;;5035714;28;20528;-80
2023/01/07 03:21:46;;;;;;;46.30;27.83;;;;;;;;;;5037358;28;20492;-79
2023/01/07 03:24:13;;;;;;;47.87;27.73;;;;;;;;;;5042205;28;20461;-79
2023/01/07 03:26:40;;;;;;;44.37;26.40;;;;;;;;;;5042774;28;21036;-79
2023/01/07 03:29:08;;;;;;;49.03;29.37;;;;;;;;;;5038533;28;20473;-78
2023/01/07 03:31:36;;;;;;;48.73;30.70;;;;;;;;;;5038287;28;20491;-79
2023/01/07 03:34:04;;;;;;;52.07;29.43;;;;;;;;;;5036696;28;20476;-79
2023/01/07 03:36:34;;;;;;;51.93;32.50;;;;;;;;;;5040026;28;20453;-79
2023/01/07 03:39:01;;;;;;;47.43;27.70;;;;;;;;;;5037255;28;20468;-79
2023/01/07 03:44:13;;;;;;;49.00;30.17;;;;;;;;;;5038315;28;20491;-79
2023/01/07 03:46:39;;;;;;;47.20;28.80;;;;;;;;;;5036474;28;20556;-79
2023/01/07 03:49:06;;;;;;;44.87;27.37;;;;;;;;;;5034730;28;20478;-79
2023/01/07 03:51:34;;;;;;;49.00;30.00;;;;;;;;;;5037941;28;20456;-79
2023/01/07 03:54:00;;;;;;;51.47;29.37;;;;;;;;;;5037575;28;20819;-79
2023/01/07 03:56:26;;;;;;;44.33;27.93;;;;;;;;;;5040785;28;20490;-79
2023/01/07 03:58:53;;;;;;;46.73;27.83;;;;;;;;;;5036902;28;20488;-79
2023/01/07 04:01:19;;;;;;;44.10;27.37;;;;;;;;;;5040580;28;20487;-79
2023/01/07 04:03:45;;;;;;;43.53;26.20;;;;;;;;;;5037845;28;20465;-79
2023/01/07 04:06:12;;;;;;;43.57;27.20;;;;;;;;;;5039069;28;20457;-80
2023/01/07 04:08:39;;;;;;;46.90;28.30;;;;;;;;;;5038936;28;20488;-79
2023/01/07 04:11:06;;;;;;;46.67;27.60;;;;;;;;;;5040326;28;20445;-79
2023/01/07 04:13:33;;;;;;;44.23;27.80;;;;;;;;;;5039606;28;20480;-79
2023/01/07 04:16:00;;;;;;;41.37;25.93;;;;;;;;;;5039539;28;20464;-79
2023/01/07 04:18:26;;;;;;;38.13;25.20;;;;;;;;;;5037147;28;20470;-79
2023/01/07 04:20:53;;;;;;;42.77;26.50;;;;;;;;;;5036370;28;20984;-79
2023/01/07 04:23:19;;;;;;;39.20;26.47;;;;;;;;;;5030088;28;20466;-79
2023/01/07 04:25:47;;;;;;;38.37;23.27;;;;;;;;;;5037299;28;20477;-79
2023/01/07 04:28:16;;;;;;;33.90;24.77;;;;;;;;;;5034025;28;20465;-79
2023/01/07 04:30:43;;;;;;;40.30;26.30;;;;;;;;;;5035102;28;20458;-79
2023/01/07 04:33:09;;;;;;;36.53;24.70;;;;;;;;;;5039287;28;20476;-79
2023/01/07 04:35:38;;;;;;;38.27;24.97;;;;;;;;;;5033827;28;20459;-79
2023/01/07 04:38:04;;;;;;;36.17;24.67;;;;;;;;;;5029763;28;20852;-79
2023/01/07 04:40:31;;;;;;;34.93;23.77;;;;;;;;;;5039987;28;20459;-79
2023/01/07 04:42:59;;;;;;;40.27;26.37;;;;;;;;;;5034231;28;20461;-79
2023/01/07 04:45:25;;;;;;;37.53;24.67;;;;;;;;;;5039763;28;20470;-79
2023/01/07 04:47:54;;;;;;;36.37;22.90;;;;;;;;;;5035671;28;20470;-79
2023/01/07 04:50:21;;;;;;;39.63;23.53;;;;;;;;;;5031557;28;20791;-79
2023/01/07 04:52:47;;;;;;;31.40;21.83;;;;;;;;;;5033821;28;20487;-79
2023/01/07 04:55:13;;;;;;;41.77;23.73;;;;;;;;;;5042838;28;20456;-79
2023/01/07 04:57:40;;;;;;;35.53;22.70;;;;;;;;;;5036771;28;20475;-79
2023/01/07 05:00:09;;;;;;;33.43;23.27;;;;;;;;;;5035527;28;20445;-79
2023/01/07 05:02:35;;;;;;;37.67;26.30;;;;;;;;;;5036233;28;20471;-79
2023/01/07 05:05:03;;;;;;;36.13;24.10;;;;;;;;;;5035463;28;20825;-79
2023/01/07 05:07:29;;;;;;;30.53;23.27;;;;;;;;;;5033303;28;20491;-80
2023/01/07 05:09:55;;;;;;;33.67;23.33;;;;;;;;;;5031634;28;20823;-79
2023/01/07 05:12:22;;;;;;;30.60;22.13;;;;;;;;;;5034643;28;20455;-79
2023/01/07 05:14:48;;;;;;;33.53;23.03;;;;;;;;;;5038941;28;20440;-79
2023/01/07 05:17:16;;;;;;;34.33;23.30;;;;;;;;;;5036865;28;20495;-79
2023/01/07 05:19:42;;;;;;;33.47;22.83;;;;;;;;;;5037997;28;20464;-79
2023/01/07 05:22:09;;;;;;;34.93;23.67;;;;;;;;;;5039432;28;20564;-79
2023/01/07 05:24:35;;;;;;;34.30;23.83;;;;;;;;;;5035706;28;20560;-79
2023/01/07 05:27:01;;;;;;;40.30;24.57;;;;;;;;;;5036662;28;20465;-79
2023/01/07 05:29:28;;;;;;;37.43;23.20;;;;;;;;;;5031621;28;20484;-79
2023/01/07 05:31:54;;;;;;;36.63;23.40;;;;;;;;;;5038208;28;20476;-79
2023/01/07 05:34:22;;;;;;;31.20;23.97;;;;;;;;;;5040284;28;20473;-79
2023/01/07 05:36:49;;;;;;;34.40;23.93;;;;;;;;;;5036904;28;20985;-79
2023/01/07 05:39:15;;;;;;;32.43;22.30;;;;;;;;;;5033916;28;21034;-79
2023/01/07 05:41:42;;;;;;;34.83;23.20;;;;;;;;;;5033973;28;20995;-79
2023/01/07 05:44:08;;;;;;;30.73;22.43;;;;;;;;;;5036072;28;20485;-79
2023/01/07 05:46:35;;;;;;;31.23;22.67;;;;;;;;;;5036781;28;20463;-79
2023/01/07 05:49:01;;;;;;;32.83;23.53;;;;;;;;;;5032542;28;20476;-79
2023/01/07 05:51:29;;;;;;;36.20;24.47;;;;;;;;;;5030366;28;20488;-79
2023/01/07 05:53:55;;;;;;;39.77;21.87;;;;;;;;;;5035820;28;20472;-79
2023/01/07 05:56:23;;;;;;;35.10;22.13;;;;;;;;;;5042080;28;20465;-79
2023/01/07 05:58:49;;;;;;;33.63;23.67;;;;;;;;;;5034145;28;20469;-79
2023/01/07 06:01:15;;;;;;;32.93;23.77;;;;;;;;;;5040318;28;20468;-79
2023/01/07 06:03:42;;;;;;;33.10;23.47;;;;;;;;;;5043511;28;20472;-79
2023/01/07 06:06:08;;;;;;;33.93;23.17;;;;;;;;;;5043141;28;20472;-79
2023/01/07 06:08:37;;;;;;;32.70;23.90;;;;;;;;;;5036911;28;21037;-79
2023/01/07 06:11:04;;;;;;;36.20;24.63;;;;;;;;;;5040891;28;20465;-79
2023/01/07 06:13:31;;;;;;;30.27;22.87;;;;;;;;;;5037044;28;20477;-79
2023/01/07 06:15:59;;;;;;;36.33;24.33;;;;;;;;;;5037862;28;20536;-79
2023/01/07 06:18:25;;;;;;;37.13;23.97;;;;;;;;;;5038881;28;20481;-79
2023/01/07 06:20:53;;;;;;;31.20;22.87;;;;;;;;;;5036566;28;20465;-79
2023/01/07 06:23:19;;;;;;;31.57;22.50;;;;;;;;;;5037272;28;20477;-79
2023/01/07 06:25:47;;;;;;;31.20;23.40;;;;;;;;;;5043224;28;20456;-79
2023/01/07 06:28:14;;;;;;;32.67;23.43;;;;;;;;;;5040179;28;20484;-79
2023/01/07 06:30:42;;;;;;;32.20;23.90;;;;;;;;;;5042971;28;20477;-79
2023/01/07 06:33:08;;;;;;;35.03;23.60;;;;;;;;;;5039710;28;20471;-79
2023/01/07 06:35:36;;;;;;;33.70;23.83;;;;;;;;;;5038510;28;20465;-79
2023/01/07 06:38:02;;;;;;;34.13;24.63;;;;;;;;;;5034492;28;21191;-79
2023/01/07 06:40:29;;;;;;;32.27;22.70;;;;;;;;;;5041329;28;20456;-79
2023/01/07 06:42:56;;;;;;;31.23;23.57;;;;;;;;;;5039322;28;20503;-79
2023/01/07 06:45:23;;;;;;;30.27;22.73;;;;;;;;;;5037332;28;20472;-79
2023/01/07 06:47:50;;;;;;;32.70;23.60;;;;;;;;;;5040843;28;20469;-80
2023/01/07 06:50:16;;;;;;;33.13;25.30;;;;;;;;;;5041443;28;20468;-79
2023/01/07 06:52:43;;;;;;;36.30;24.77;;;;;;;;;;5040423;28;20461;-79
2023/01/07 06:55:10;;;;;;;34.17;22.63;;;;;;;;;;5040721;28;20459;-79
2023/01/07 06:57:36;;;;;;;34.40;24.33;;;;;;;;;;5039702;28;20464;-80
2023/01/07 07:00:05;;;;;;;36.07;24.90;;;;;;;;;;5034695;28;20464;-79
2023/01/07 07:02:31;;;;;;;34.93;23.80;;;;;;;;;;5032524;28;20454;-79
2023/01/07 07:04:57;;;;;;;32.40;24.23;;;;;;;;;;5045216;28;20474;-79
2023/01/07 07:07:24;;;;;;;36.40;25.03;;;;;;;;;;5039363;28;20480;-79
2023/01/07 07:09:51;;;;;;;39.10;25.40;;;;;;;;;;5040316;28;20456;-79
2023/01/07 07:12:18;;;;;;;38.63;26.70;;;;;;;;;;5034117;28;20453;-79
2023/01/07 07:14:44;;;;;;;35.83;25.57;;;;;;;;;;5040937;28;20431;-79
2023/01/07 07:17:12;;;;;;;40.43;25.23;;;;;;;;;;5041280;28;20461;-80
2023/01/07 07:19:38;;;;;;;37.50;23.90;;;;;;;;;;5034143;28;20545;-81
2023/01/07 07:22:04;;;;;;;46.63;27.30;;;;;;;;;;5039772;28;20463;-81
2023/01/07 07:24:31;;;;;;;38.57;26.30;;;;;;;;;;5034982;28;20476;-81
2023/01/07 07:26:58;;;;;;;41.53;25.43;;;;;;;;;;5034973;28;20495;-81
2023/01/07 07:29:25;;;;;;;38.97;25.57;;;;;;;;;;5039033;28;20467;-81
2023/01/07 07:31:51;;;;;;;37.57;26.23;;;;;;;;;;5028246;28;20473;-81
2023/01/07 07:34:19;;;;;;;38.60;26.20;;;;;;;;;;5036169;28;20469;-81
2023/01/07 07:36:45;;;;;;;39.90;25.93;;;;;;;;;;5038114;28;20445;-81
2023/01/07 07:39:12;;;;;;;34.93;23.83;;;;;;;;;;5038010;28;21010;-80
2023/01/07 07:41:38;;;;;;;37.03;26.80;;;;;;;;;;5033906;28;20472;-81
2023/01/07 07:44:05;;;;;;;35.77;23.93;;;;;;;;;;5039721;28;20465;-81
2023/01/07 07:46:31;;;;;;;34.63;23.60;;;;;;;;;;5031999;28;20472;-81
2023/01/07 07:48:58;;;;;;;38.03;24.20;;;;;;;;;;5033360;28;20477;-81
2023/01/07 07:51:25;;;;;;;36.63;24.50;;;;;;;;;;5036500;28;20466;-81
2023/01/07 07:53:52;;;;;;;29.83;21.53;;;;;;;;;;5029084;28;20474;-81
2023/01/07 07:56:18;;;;;;;31.50;22.33;;;;;;;;;;5031930;28;20452;-81
2023/01/07 07:58:44;;;;;;;33.50;22.60;;;;;;;;;;5036834;28;20481;-81
2023/01/07 08:01:11;;;;;;;38.30;21.87;;;;;;;;;;5033854;28;20452;-81
2023/01/07 08:03:37;;;;;;;32.63;22.20;;;;;;;;;;5038140;28;20464;-81
2023/01/07 08:06:04;;;;;;;27.83;20.33;;;;;;;;;;5032871;28;20857;-81
2023/01/07 08:08:32;;;;;;;29.77;19.67;;;;;;;;;;5041995;28;20469;-81
2023/01/07 08:10:58;;;;;;;29.30;20.40;;;;;;;;;;5037829;28;20457;-81
2023/01/07 08:13:25;;;;;;;27.07;19.40;;;;;;;;;;5042406;28;20466;-81
2023/01/07 08:15:51;;;;;;;27.37;20.00;;;;;;;;;;5037945;28;20457;-81
2023/01/07 08:18:18;;;;;;;25.63;17.80;;;;;;;;;;5034485;28;20477;-81
2023/01/07 08:20:45;;;;;;;33.10;20.40;;;;;;;;;;5035566;28;20457;-81
2023/01/07 08:23:11;;;;;;;28.40;17.97;;;;;;;;;;5036252;28;20465;-81
2023/01/07 08:25:39;;;;;;;24.37;17.30;;;;;;;;;;5035959;28;20462;-81
2023/01/07 08:28:05;;;;;;;23.60;16.67;;;;;;;;;;5036811;28;20481;-81
2023/01/07 08:30:32;;;;;;;26.00;18.43;;;;;;;;;;5034926;28;20461;-81
2023/01/07 08:33:00;;;;;;;23.37;17.80;;;;;;;;;;5033656;28;20474;-81
2023/01/07 08:35:26;;;;;;;23.70;16.83;;;;;;;;;;5040587;28;20452;-81
2023/01/07 08:38:01;;;;;;;26.10;17.30;;;;;;;;;;5031367;28;20470;-81
2023/01/07 08:40:28;;;;;;;19.87;15.70;;;;;;;;;;5036229;28;20517;-81
2023/01/07 08:42:58;;;;;;;20.60;16.30;;;;;;;;;;5032124;28;20473;-81
2023/01/07 08:45:25;;;;;;;21.90;16.13;;;;;;;;;;5036394;28;20449;-81
2023/01/07 08:47:52;;;;;;;22.73;16.67;;;;;;;;;;5035407;28;20481;-80
2023/01/07 08:50:19;;;;;;;20.03;14.13;;;;;;;;;;5037500;28;20445;-81
2023/01/07 08:52:45;;;;;;;21.53;14.40;;;;;;;;;;5033987;28;20472;-81
2023/01/07 08:55:11;;;;;;;17.73;12.80;;;;;;;;;;5029275;28;20451;-81
2023/01/07 08:57:38;;;;;;;20.50;14.80;;;;;;;;;;5036838;28;20480;-81
2023/01/07 09:00:07;;;;;;;19.93;14.00;;;;;;;;;;5032332;28;20477;-81
2023/01/07 09:02:33;;;;;;;17.40;14.40;;;;;;;;;;5033275;28;20529;-81
2023/01/07 09:04:59;;;;;;;14.00;10.73;;;;;;;;;;5040426;28;20491;-81
2023/01/07 09:07:25;;;;;;;17.80;12.33;;;;;;;;;;5032839;28;20457;-81
2023/01/07 09:09:52;;;;;;;16.60;13.00;;;;;;;;;;5043651;28;20419;-81
2023/01/07 09:12:18;;;;;;;17.70;11.80;;;;;;;;;;5035954;28;20453;-81
2023/01/07 09:14:44;;;;;;;14.30;11.70;;;;;;;;;;5040361;28;20579;-81
2023/01/07 09:17:12;;;;;;;16.07;10.97;;;;;;;;;;5039111;28;20436;-81
2023/01/07 09:19:38;;;;;;;18.00;10.73;;;;;;;;;;5028553;28;20469;-81
2023/01/07 09:22:05;;;;;;;13.93;9.83;;;;;;;;;;5034838;28;20452;-81
2023/01/07 09:24:31;;;;;;;15.47;10.17;;;;;;;;;;5011829;28;20470;-81
2023/01/07 09:26:57;;;;;;;13.23;10.00;;;;;;;;;;5016861;28;20529;-81
2023/01/07 09:29:25;;;;;;;10.97;8.93;;;;;;;;;;5010730;28;20486;-81
2023/01/07 09:31:51;;;;;;;12.00;9.27;;;;;;;;;;5012648;28;20890;-81
2023/01/07 09:34:19;;;;;;;14.30;9.50;;;;;;;;;;5017007;28;20475;-81
2023/01/07 09:36:46;;;;;;;10.83;9.73;;;;;;;;;;5016290;28;20462;-81
2023/01/07 09:39:13;;;;;;;11.30;9.43;;;;;;;;;;5016914;28;20466;-81
2023/01/07 09:41:45;;;;;;;16.33;10.30;;;;;;;;;;5014229;28;20453;-81
2023/01/07 09:44:15;;;;;;;12.00;8.47;;;;;;;;;;5016144;28;20477;-81
2023/01/07 09:46:42;;;;;;;12.43;8.63;;;;;;;;;;5007806;28;20438;-81
2023/01/07 09:49:10;;;;;;;10.50;8.97;;;;;;;;;;5014258;28;20473;-81
2023/01/07 09:51:39;;;;;;;9.43;7.93;;;;;;;;;;5015775;28;20956;-81
2023/01/07 09:54:06;;;;;;;16.67;8.70;;;;;;;;;;5015704;28;20489;-81
2023/01/07 09:56:34;;;;;;;8.60;6.53;;;;;;;;;;5012444;28;20456;-82
2023/01/07 09:59:02;;;;;;;11.10;7.87;;;;;;;;;;5014519;28;20481;-82
2023/01/07 10:01:32;;;;;;;9.70;7.73;;;;;;;;;;5017828;28;20466;-81
2023/01/07 10:04:05;;;;;;;8.70;6.20;;;;;;;;;;5009905;28;20470;-81
2023/01/07 10:06:35;;;;;;;7.63;5.70;;;;;;;;;;5013554;28;20851;-81
2023/01/07 10:09:06;;;;;;;5.47;4.97;;;;;;;;;;5017176;28;20549;-81
2023/01/07 10:11:39;;;;;;;5.33;4.27;;;;;;;;;;5015846;28;20441;-81
2023/01/07 10:14:28;;;;;;;6.50;5.00;;;;;;;;;;5011344;28;20472;-81
2023/01/07 10:16:58;;;;;;;4.77;4.30;;;;;;;;;;5010661;28;20469;-81
2023/01/07 10:19:26;;;;;;;5.50;4.57;;;;;;;;;;5013795;28;20479;-81
2023/01/07 10:21:54;;;;;;;8.67;4.57;;;;;;;;;;5016661;28;20428;-81
2023/01/07 10:24:24;;;;;;;4.50;4.10;;;;;;;;;;5016493;28;20477;-81
2023/01/07 10:26:53;;;;;;;5.00;4.50;;;;;;;;;;5011700;28;20481;-81
2023/01/07 10:29:21;;;;;;;4.60;4.10;;;;;;;;;;5014635;28;20470;-81
2023/01/07 10:31:48;;;;;;;5.10;3.77;;;;;;;;;;5013680;28;20455;-81
2023/01/07 10:34:16;;;;;;;5.03;4.43;;;;;;;;;;5018735;28;20474;-81
2023/01/07 10:36:48;;;;;;;4.30;3.77;;;;;;;;;;4997993;28;20461;-81
2023/01/07 10:39:21;;;;;;;4.30;3.67;;;;;;;;;;5014810;28;20477;-81
2023/01/07 10:41:54;;;;;;;5.13;4.27;;;;;;;;;;5016632;28;20445;-81
2023/01/07 10:44:36;;;;;;;4.40;3.70;;;;;;;;;;5017951;28;20482;-81
2023/01/07 10:47:06;;;;;;;4.40;3.97;;;;;;;;;;5015594;28;20458;-82
2023/01/07 10:49:41;;;;;;;3.73;3.33;;;;;;;;;;5013086;28;20459;-81
2023/01/07 10:52:20;;;;;;;5.10;3.83;;;;;;;;;;5019698;28;20441;-80
2023/01/07 10:55:04;;;;;;;3.90;3.53;;;;;;;;;;5042591;28;20468;-81
2023/01/07 10:57:33;;;;;;;3.20;2.90;;;;;;;;;;5031532;28;20564;-81
2023/01/07 11:00:02;;;;;;;5.30;3.93;;;;;;;;;;5023438;28;20845;-81
2023/01/07 11:02:29;;;;;;;3.60;3.30;;;;;;;;;;5017469;28;20998;-81
2023/01/07 11:04:55;;;;;;;3.77;2.90;;;;;;;;;;5020459;28;20500;-81
2023/01/07 11:07:27;;;;;;;4.73;3.10;;;;;;;;;;5020302;28;20440;-81
2023/01/07 11:09:54;;;;;;;4.53;2.93;;;;;;;;;;5024088;28;20448;-81
2023/01/07 11:12:26;;;;;;;4.13;3.33;;;;;;;;;;5018587;28;20454;-81
2023/01/07 11:14:55;;;;;;;3.73;3.43;;;;;;;;;;5020405;28;20466;-81
2023/01/07 11:17:26;;;;;;;4.47;3.57;;;;;;;;;;5015139;28;20465;-82
2023/01/07 11:19:52;;;;;;;3.93;2.90;;;;;;;;;;5016552;28;20489;-81
2023/01/07 11:22:28;;;;;;;3.63;3.30;;;;;;;;;;5020168;28;20462;-82
2023/01/07 11:24:55;;;;;;;2.60;2.40;;;;;;;;;;5020252;28;20464;-81
2023/01/07 11:27:23;;;;;;;3.30;2.93;;;;;;;;;;5019256;28;20518;-81
2023/01/07 11:29:57;;;;;;;3.33;3.03;;;;;;;;;;5016437;28;20440;-81
2023/01/07 11:32:25;;;;;;;3.10;2.80;;;;;;;;;;5017193;28;20461;-81
2023/01/07 11:34:55;;;;;;;2.93;2.63;;;;;;;;;;5016768;28;20466;-81
2023/01/07 11:37:30;;;;;;;4.23;2.83;;;;;;;;;;5013776;28;20469;-82
2023/01/07 11:39:58;;;;;;;5.00;2.70;;;;;;;;;;5016599;28;20469;-81
2023/01/07 11:42:40;;;;;;;4.30;3.00;;;;;;;;;;5016833;28;20813;-80
2023/01/07 11:45:14;;;;;;;3.27;2.80;;;;;;;;;;5021155;28;20440;-81
2023/01/07 11:47:45;;;;;;;3.83;2.77;;;;;;;;;;5013929;28;20465;-81
2023/01/07 11:50:20;;;;;;;4.23;3.13;;;;;;;;;;5017136;28;20464;-81
2023/01/07 11:52:54;;;;;;;3.40;2.43;;;;;;;;;;5015747;28;20848;-81
2023/01/07 11:55:22;;;;;;;3.00;2.80;;;;;;;;;;5016826;28;20452;-81
2023/01/07 11:57:52;;;;;;;5.03;2.47;;;;;;;;;;5019019;28;20848;-80
2023/01/07 12:00:21;;;;;;;2.83;2.63;;;;;;;;;;5013768;28;20486;-81
2023/01/07 12:02:58;;;;;;;2.97;2.67;;;;;;;;;;5023907;28;20493;-81
2023/01/07 12:05:26;;;;;;;3.40;2.07;;;;;;;;;;5019025;28;20473;-82
2023/01/07 12:07:53;;;;;;;4.90;3.53;;;;;;;;;;5019942;28;20600;-81
2023/01/07 12:10:31;;;;;;;3.10;2.23;;;;;;;;;;5016633;28;20447;-81
2023/01/07 12:12:58;;;;;;;2.40;2.20;;;;;;;;;;5017906;28;20489;-81
2023/01/07 12:15:28;;;;;;;2.60;2.40;;;;;;;;;;5021855;28;20484;-81
2023/01/07 12:18:01;;;;;;;3.60;2.30;;;;;;;;;;5011050;28;20490;-81
2023/01/07 12:20:35;;;;;;;2.63;2.43;;;;;;;;;;5017148;28;20475;-81
2023/01/07 12:23:07;;;;;;;3.43;3.13;;;;;;;;;;5015769;28;20469;-81
2023/01/07 12:25:37;;;;;;;2.20;2.07;;;;;;;;;;5021633;28;20457;-81
2023/01/07 12:28:09;;;;;;;5.23;2.73;;;;;;;;;;5015695;28;20484;-82
2023/01/07 12:30:57;;;;;;;2.40;2.03;;;;;;;;;;5018188;28;20488;-81
2023/01/07 12:33:33;;;;;;;2.77;2.03;;;;;;;;;;5009106;28;20468;-81
2023/01/07 12:36:03;;;;;;;3.33;2.40;;;;;;;;;;5020836;28;20444;-82
2023/01/07 12:38:38;;;;;;;5.63;2.80;;;;;;;;;;5019389;28;20985;-81
2023/01/07 12:41:09;;;;;;;5.80;2.20;;;;;;;;;;5012839;28;20511;-81
2023/01/07 12:43:38;;;;;;;2.93;2.27;;;;;;;;;;5017658;28;20470;-81
2023/01/07 12:46:06;;;;;;;2.73;2.53;;;;;;;;;;5015817;28;20445;-81
2023/01/07 12:48:39;;;;;;;4.00;2.40;;;;;;;;;;5012513;28;20459;-81
2023/01/07 12:51:10;;;;;;;2.30;2.10;;;;;;;;;;5019839;28;20478;-81
2023/01/07 12:53:39;;;;;;;4.60;2.40;;;;;;;;;;5021226;28;20870;-81
2023/01/07 12:56:10;;;;;;;4.60;2.47;;;;;;;;;;5018891;28;20464;-82
2023/01/07 12:58:42;;;;;;;2.20;2.00;;;;;;;;;;5017687;28;20451;-81
2023/01/07 13:01:14;;;;;;;3.33;2.40;;;;;;;;;;5014209;28;20543;-81
2023/01/07 13:03:46;;;;;;;2.50;1.70;;;;;;;;;;5017902;28;20487;-81
2023/01/07 13:06:15;;;;;;;1.80;1.70;;;;;;;;;;5010837;28;20463;-81
2023/01/07 13:08:43;;;;;;;2.90;2.40;;;;;;;;;;5014382;28;20478;-81
2023/01/07 13:11:14;;;;;;;3.10;2.80;;;;;;;;;;5016673;28;20462;-82
2023/01/07 13:13:43;;;;;;;3.70;2.10;;;;;;;;;;5014592;28;20486;-81
2023/01/07 13:16:10;;;;;;;3.53;2.23;;;;;;;;;;5018082;28;20960;-81
2023/01/07 13:18:36;;;;;;;5.67;2.60;;;;;;;;;;5011432;28;20477;-81
2023/01/07 13:21:07;;;;;;;4.40;2.83;;;;;;;;;;5013434;28;20489;-82
2023/01/07 13:23:53;;;;;;;4.50;2.27;;;;;;;;;;5016370;28;20468;-81
2023/01/07 13:26:26;;;;;;;2.90;2.47;;;;;;;;;;5014945;28;20458;-81
2023/01/07 13:29:06;;;;;;;3.07;2.40;;;;;;;;;;5017363;28;20470;-82
2023/01/07 13:31:40;;;;;;;2.70;2.50;;;;;;;;;;5007677;28;20450;-82
2023/01/07 13:34:10;;;;;;;2.60;2.40;;;;;;;;;;5018350;28;20488;-81
2023/01/07 13:36:40;;;;;;;2.30;2.10;;;;;;;;;;5016292;28;20477;-81
2023/01/07 13:39:15;;;;;;;2.93;2.33;;;;;;;;;;5018318;28;20484;-81
2023/01/07 13:41:47;;;;;;;2.60;2.23;;;;;;;;;;5009605;28;20480;-82
2023/01/07 13:44:21;;;;;;;3.70;2.60;;;;;;;;;;5016621;28;20489;-81
2023/01/07 13:46:48;;;;;;;4.60;3.03;;;;;;;;;;5015207;28;20441;-81
2023/01/07 13:49:23;;;;;;;5.17;2.53;;;;;;;;;;5012523;28;20490;-81
2023/01/07 13:51:52;;;;;;;3.97;2.50;;;;;;;;;;5018638;28;20453;-82
2023/01/07 13:54:33;;;;;;;3.17;2.73;;;;;;;;;;5016039;28;20860;-81
2023/01/07 13:57:19;;;;;;;2.40;2.00;;;;;;;;;;5016523;28;20436;-81
2023/01/07 13:59:59;;;;;;;2.47;2.27;;;;;;;;;;5022381;28;20481;-82
2023/01/07 14:02:26;;;;;;;3.90;2.50;;;;;;;;;;5019079;28;20935;-81
2023/01/07 14:05:04;;;;;;;3.33;1.80;;;;;;;;;;5018166;28;20466;-82
2023/01/07 14:07:30;;;;;;;2.60;1.90;;;;;;;;;;5015654;28;20513;-81
2023/01/07 14:09:58;;;;;;;2.50;2.10;;;;;;;;;;5023020;28;20431;-81
2023/01/07 14:12:45;;;;;;;5.27;2.93;;;;;;;;;;5014313;28;20437;-81
2023/01/07 14:15:21;;;;;;;1.77;1.67;;;;;;;;;;5013496;28;20417;-81
2023/01/07 14:17:55;;;;;;;2.30;1.80;;;;;;;;;;5019512;28;20856;-81
2023/01/07 14:20:24;;;;;;;6.00;1.90;;;;;;;;;;5017945;28;20481;-81
2023/01/07 14:22:55;;;;;;;1.87;1.70;;;;;;;;;;5017302;28;20471;-82
2023/01/07 14:25:25;;;;;;;2.30;1.80;;;;;;;;;;5018317;28;20504;-82
2023/01/07 14:28:16;;;;;;;3.10;2.23;;;;;;;;;;5017217;28;20831;-82
2023/01/07 14:30:45;;;;;;;2.77;2.17;;;;;;;;;;5008861;28;20846;-81
2023/01/07 14:33:17;;;;;;;2.83;2.40;;;;;;;;;;5018628;28;20466;-82
2023/01/07 14:35:52;;;;;;;2.50;2.30;;;;;;;;;;5016166;28;20460;-82
2023/01/07 14:38:51;;;;;;;2.63;2.43;;;;;;;;;;5015724;28;20468;-81
2023/01/07 14:41:19;;;;;;;3.17;2.10;;;;;;;;;;4961046;29;20488;-81